createdAt,value
2022-09-22T00:02:12.922Z,8.80
2022-09-22T00:07:14.697Z,7.80
2022-09-22T00:12:21.987Z,7.78
2022-09-22T00:17:31.510Z,8.13
2022-09-22T00:22:33.503Z,13.23
2022-09-22T00:27:37.559Z,6.57
2022-09-22T00:32:42.233Z,8.30
2022-09-22T00:37:46.032Z,7.97
2022-09-22T00:42:47.685Z,8.50
2022-09-22T00:47:51.749Z,11.50
2022-09-22T00:52:55.382Z,8.37
2022-09-22T00:58:00.041Z,8.47
2022-09-22T01:03:05.280Z,9.00
2022-09-22T01:08:11.201Z,8.33
2022-09-22T01:13:26.726Z,9.87
2022-09-22T01:18:43.024Z,7.70
2022-09-22T01:24:00.127Z,7.20
2022-09-22T01:29:38.957Z,8.57
2022-09-22T01:34:48.196Z,10.43
2022-09-22T01:40:02.877Z,6.37
2022-09-22T01:45:17.899Z,8.87
2022-09-22T01:50:42.841Z,8.20
2022-09-22T01:55:58.836Z,9.43
2022-09-22T02:01:10.956Z,9.00
2022-09-22T02:06:27.502Z,6.60
2022-09-22T02:11:31.893Z,9.13
2022-09-22T02:16:38.840Z,6.87
2022-09-22T02:21:48.301Z,8.27
2022-09-22T02:26:52.412Z,7.27
2022-09-22T02:31:56.809Z,6.67
2022-09-22T02:37:11.356Z,7.80
2022-09-22T02:42:33.208Z,7.70
2022-09-22T02:48:14.096Z,5.43
2022-09-22T02:53:17.985Z,8.53
2022-09-22T02:58:26.765Z,9.10
2022-09-22T03:03:30.818Z,7.33
2022-09-22T03:08:34.550Z,11.10
2022-09-22T03:13:38.529Z,6.87
2022-09-22T03:18:47.730Z,9.97
2022-09-22T03:23:51.715Z,10.03
2022-09-22T03:28:58.215Z,7.83
2022-09-22T03:34:04.456Z,8.40
2022-09-22T03:39:08.553Z,7.77
2022-09-22T03:44:15.307Z,9.57
2022-09-22T03:49:21.570Z,8.27
2022-09-22T03:54:27.459Z,7.77
2022-09-22T03:59:31.508Z,6.33
2022-09-22T04:04:38.094Z,7.90
2022-09-22T04:09:44.471Z,7.00
2022-09-22T04:14:55.376Z,8.17
2022-09-22T04:19:57.302Z,6.57
2022-09-22T04:24:59.428Z,7.50
2022-09-22T04:30:03.488Z,8.63
2022-09-22T04:35:10.716Z,9.37
2022-09-22T04:40:12.613Z,7.70
2022-09-22T04:45:21.446Z,6.30
2022-09-22T04:50:23.845Z,5.63
2022-09-22T04:55:28.988Z,6.90
2022-09-22T05:00:34.889Z,14.17
2022-09-22T05:05:40.484Z,7.37
2022-09-22T05:10:46.426Z,6.13
2022-09-22T05:15:48.283Z,7.87
2022-09-22T05:20:51.286Z,9.00
2022-09-22T05:25:52.980Z,7.30
2022-09-22T05:30:54.920Z,7.53
2022-09-22T05:35:56.711Z,12.70
2022-09-22T05:40:58.698Z,9.43
2022-09-22T05:46:07.558Z,10.10
2022-09-22T05:51:14.790Z,10.03
2022-09-22T05:56:19.890Z,8.43
2022-09-22T06:01:23.824Z,10.30
2022-09-22T06:06:30.957Z,8.33
2022-09-22T06:11:35.675Z,10.27
2022-09-22T06:16:49.976Z,11.80
2022-09-22T06:21:52.663Z,12.90
2022-09-22T06:26:54.385Z,16.13
2022-09-22T06:32:02.767Z,22.00
2022-09-22T06:37:08.305Z,18.53
2022-09-22T06:42:17.308Z,20.87
2022-09-22T06:47:19.287Z,20.27
2022-09-22T06:52:23.194Z,19.03
2022-09-22T06:57:33.114Z,17.30
2022-09-22T07:02:37.115Z,16.80
2022-09-22T07:07:40.417Z,21.37
2022-09-22T07:12:44.433Z,17.20
2022-09-22T07:17:53.297Z,15.33
2022-09-22T07:23:00.556Z,17.73
2022-09-22T07:28:05.151Z,19.47
2022-09-22T07:33:07.391Z,15.25
2022-09-22T07:38:09.182Z,14.65
2022-09-22T07:43:10.869Z,15.40
2022-09-22T07:48:32.037Z,13.75
2022-09-22T07:53:33.772Z,13.48
2022-09-22T07:58:41.421Z,12.45
2022-09-22T08:03:43.209Z,8.65
2022-09-22T08:08:53.734Z,10.25
2022-09-22T08:14:04.817Z,10.68
2022-09-22T08:19:12.427Z,12.15
2022-09-22T08:24:21.874Z,12.18
2022-09-22T08:29:24.555Z,7.88
2022-09-22T08:34:28.804Z,10.80
2022-09-22T08:39:30.725Z,11.68
2022-09-22T08:44:37.502Z,8.30
2022-09-22T08:50:08.571Z,10.00
2022-09-22T08:55:26.043Z,4.60
2022-09-22T09:00:40.513Z,8.10
2022-09-22T09:05:54.533Z,6.10
2022-09-22T09:10:59.724Z,6.32
2022-09-22T09:16:35.618Z,7.65
2022-09-22T09:21:44.300Z,9.25
2022-09-22T09:26:47.091Z,4.78
2022-09-22T09:31:53.795Z,10.40
2022-09-22T09:37:07.724Z,8.88
2022-09-22T09:42:31.725Z,8.50
2022-09-22T09:47:59.011Z,7.82
2022-09-22T09:53:02.257Z,6.28
2022-09-22T09:58:07.195Z,9.52
2022-09-22T10:03:39.523Z,6.57
2022-09-22T10:08:50.828Z,6.30
2022-09-22T10:13:56.161Z,4.97
2022-09-22T10:19:21.249Z,8.65
2022-09-22T10:24:28.166Z,3.13
2022-09-22T10:29:29.949Z,6.45
2022-09-22T10:34:36.750Z,7.30
2022-09-22T10:39:44.446Z,4.43
2022-09-22T10:44:49.099Z,7.78
2022-09-22T10:50:16.468Z,9.45
2022-09-22T10:55:41.951Z,7.25
2022-09-22T11:00:47.480Z,8.23
2022-09-22T11:06:28.520Z,7.43
2022-09-22T11:11:56.595Z,5.93
2022-09-22T11:17:40.633Z,6.45
2022-09-22T11:23:37.646Z,6.25
2022-09-22T11:28:57.104Z,6.63
2022-09-22T11:34:14.277Z,8.32
2022-09-22T11:39:42.123Z,7.35
2022-09-22T11:44:53.750Z,9.10
2022-09-22T11:50:20.039Z,6.72
2022-09-22T11:55:54.168Z,6.68
2022-09-22T12:01:19.279Z,5.15
2022-09-22T12:06:41.310Z,6.65
2022-09-22T12:11:43.093Z,8.38
2022-09-22T12:17:01.840Z,7.28
2022-09-22T12:22:23.357Z,4.38
2022-09-22T12:27:27.427Z,4.10
2022-09-22T12:32:35.441Z,7.72
2022-09-22T12:37:38.465Z,8.68
2022-09-22T12:42:49.721Z,6.03
2022-09-22T12:47:59.382Z,6.40
2022-09-22T12:53:21.762Z,4.63
2022-09-22T12:58:26.122Z,6.07
2022-09-22T13:03:30.680Z,4.47
2022-09-22T13:08:36.676Z,5.07
2022-09-22T13:13:46.790Z,4.60
2022-09-22T13:18:58.722Z,2.97
2022-09-22T13:24:01.817Z,5.63
2022-09-22T13:29:13.687Z,8.60
2022-09-22T13:34:33.301Z,4.28
2022-09-22T13:39:44.811Z,4.90
2022-09-22T13:44:57.602Z,4.97
2022-09-22T13:50:09.084Z,5.43
2022-09-22T13:55:26.304Z,5.45
2022-09-22T14:01:01.424Z,3.33
2022-09-22T14:06:01.229Z,8.35
2022-09-22T14:11:06.538Z,7.25
2022-09-22T14:16:21.323Z,6.03
2022-09-22T14:21:23.117Z,6.72
2022-09-22T14:26:29.656Z,3.10
2022-09-22T14:31:33.250Z,4.95
2022-09-22T14:36:37.068Z,6.28
2022-09-22T14:41:39.450Z,4.05
2022-09-22T14:46:41.810Z,5.45
2022-09-22T14:51:47.591Z,4.25
2022-09-22T14:56:50.848Z,5.88
2022-09-22T15:02:18.374Z,6.13
2022-09-22T15:07:39.106Z,7.50
2022-09-22T15:12:47.431Z,4.15
2022-09-22T15:18:13.178Z,3.50
2022-09-22T15:23:31.751Z,4.15
2022-09-22T15:28:38.075Z,9.48
2022-09-22T15:33:40.350Z,4.10
2022-09-22T15:38:44.907Z,8.98
2022-09-22T15:43:50.544Z,4.82
2022-09-22T15:49:03.565Z,6.40
2022-09-22T15:54:21.528Z,6.72
2022-09-22T15:59:33.070Z,7.82
2022-09-22T16:04:40.037Z,4.00
2022-09-22T16:09:43.940Z,4.60
2022-09-22T16:14:48.211Z,4.85
2022-09-22T16:19:53.162Z,6.70
2022-09-22T16:24:57.633Z,4.32
2022-09-22T16:30:02.824Z,4.28
2022-09-22T16:35:08.291Z,6.57
2022-09-22T16:40:10.958Z,5.30
2022-09-22T16:45:12.713Z,4.53
2022-09-22T16:50:16.084Z,6.45
2022-09-22T16:55:20.184Z,4.60
2022-09-22T17:00:23.393Z,2.63
2022-09-22T17:05:25.794Z,2.47
2022-09-22T17:10:34.243Z,7.15
2022-09-22T17:15:49.086Z,4.10
2022-09-22T17:20:52.975Z,4.78
2022-09-22T17:25:54.670Z,3.33
2022-09-22T17:31:02.966Z,3.47
2022-09-22T17:36:20.993Z,6.32
2022-09-22T17:41:31.534Z,4.60
2022-09-22T17:46:57.447Z,5.82
2022-09-22T17:52:18.761Z,7.13
2022-09-22T17:57:27.230Z,5.93
2022-09-22T18:02:37.033Z,5.68
2022-09-22T18:07:54.108Z,6.82
2022-09-22T18:13:01.990Z,6.28
2022-09-22T18:18:04.016Z,4.65
2022-09-22T18:23:08.263Z,7.07
2022-09-22T18:28:14.712Z,6.40
2022-09-22T18:33:18.710Z,4.78
2022-09-22T18:38:20.569Z,4.43
2022-09-22T18:43:24.653Z,6.68
2022-09-22T18:48:27.285Z,6.63
2022-09-22T18:53:30.255Z,5.93
2022-09-22T18:58:33.166Z,6.20
2022-09-22T19:03:36.374Z,16.70
2022-09-22T19:08:40.614Z,17.45
2022-09-22T19:13:46.406Z,19.23
2022-09-22T19:18:50.214Z,16.40
2022-09-22T19:24:00.256Z,10.45
2022-09-22T19:29:09.077Z,10.10
2022-09-22T19:34:12.427Z,6.35
2022-09-22T19:39:19.089Z,6.93
2022-09-22T19:44:27.029Z,5.35
2022-09-22T19:49:29.724Z,3.95
2022-09-22T19:54:31.461Z,6.57
2022-09-22T19:59:33.393Z,5.15
2022-09-22T20:04:38.638Z,4.55
2022-09-22T20:09:43.440Z,6.75
2022-09-22T20:14:47.585Z,7.18
2022-09-22T20:19:51.685Z,8.13
2022-09-22T20:24:58.101Z,11.77
2022-09-22T20:30:04.248Z,8.20
2022-09-22T20:35:17.323Z,7.70
2022-09-22T20:40:23.476Z,7.65
2022-09-22T20:45:31.028Z,7.05
2022-09-22T20:50:37.533Z,6.15
2022-09-22T20:55:39.525Z,5.57
2022-09-22T21:00:50.309Z,4.65
2022-09-22T21:05:55.926Z,4.25
2022-09-22T21:10:57.776Z,3.28
2022-09-22T21:16:03.671Z,8.00
2022-09-22T21:21:17.673Z,4.82
2022-09-22T21:26:25.918Z,6.47
2022-09-22T21:31:34.276Z,4.88
2022-09-22T21:36:36.309Z,6.35
2022-09-22T21:41:38.164Z,5.03
2022-09-22T21:46:45.377Z,4.00
2022-09-22T21:51:48.110Z,5.53
2022-09-22T21:56:56.698Z,4.82
2022-09-22T22:02:00.772Z,6.18
2022-09-22T22:07:04.598Z,6.82
2022-09-22T22:12:11.959Z,6.32
2022-09-22T22:17:17.145Z,6.40
2022-09-22T22:22:18.853Z,4.97
2022-09-22T22:27:25.628Z,4.10
2022-09-22T22:32:27.573Z,5.82
2022-09-22T22:37:31.811Z,6.60
2022-09-22T22:42:33.521Z,5.38
2022-09-22T22:47:35.291Z,4.30
2022-09-22T22:52:42.192Z,4.55
2022-09-22T22:57:44.494Z,6.43
2022-09-22T23:02:46.233Z,7.72
2022-09-22T23:07:47.971Z,9.60
2022-09-22T23:12:56.769Z,6.65
2022-09-22T23:17:58.548Z,6.57
2022-09-22T23:23:00.211Z,9.90
2022-09-22T23:28:06.135Z,12.32
2022-09-22T23:33:11.325Z,10.05
2022-09-22T23:38:19.519Z,6.60
2022-09-22T23:43:27.503Z,9.10
2022-09-22T23:48:33.678Z,8.50
2022-09-22T23:53:38.005Z,9.93
2022-09-22T23:58:42.275Z,8.43
